sensor_id;sensor_type;location;lat;lon;timestamp;pressure;altitude;pressure_sealevel;temperature;humidity
50518;BME280;37075;44.084;2.962;2023-08-08T00:02:45;98029.66;;;13.18;52.21
50518;BME280;37075;44.084;2.962;2023-08-08T00:05:32;98020.72;;;13.09;52.95
50518;BME280;37075;44.084;2.962;2023-08-08T00:08:18;98024.06;;;13.02;52.81
50518;BME280;37075;44.084;2.962;2023-08-08T00:11:04;98032.81;;;12.95;52.57
50518;BME280;37075;44.084;2.962;2023-08-08T00:13:49;98029.03;;;12.88;52.69
50518;BME280;37075;44.084;2.962;2023-08-08T00:16:35;98022.53;;;12.80;52.80
50518;BME280;37075;44.084;2.962;2023-08-08T00:19:21;98023.88;;;12.74;53.40
50518;BME280;37075;44.084;2.962;2023-08-08T00:22:08;98027.97;;;12.68;53.04
50518;BME280;37075;44.084;2.962;2023-08-08T00:24:54;98028.09;;;12.59;53.42
50518;BME280;37075;44.084;2.962;2023-08-08T00:27:40;98028.66;;;12.53;53.72
50518;BME280;37075;44.084;2.962;2023-08-08T00:30:28;98037.06;;;12.48;54.39
50518;BME280;37075;44.084;2.962;2023-08-08T00:33:14;98031.34;;;12.41;53.65
50518;BME280;37075;44.084;2.962;2023-08-08T00:36:00;98026.09;;;12.35;53.49
50518;BME280;37075;44.084;2.962;2023-08-08T00:38:47;98026.31;;;12.30;53.47
50518;BME280;37075;44.084;2.962;2023-08-08T00:41:34;98021.41;;;12.24;54.41
50518;BME280;37075;44.084;2.962;2023-08-08T00:44:21;98030.59;;;12.19;54.21
50518;BME280;37075;44.084;2.962;2023-08-08T00:47:06;98026.94;;;12.15;54.33
50518;BME280;37075;44.084;2.962;2023-08-08T00:49:53;98035.69;;;12.09;54.24
50518;BME280;37075;44.084;2.962;2023-08-08T00:52:39;98040.91;;;12.01;54.50
50518;BME280;37075;44.084;2.962;2023-08-08T00:55:27;98030.13;;;11.96;54.80
50518;BME280;37075;44.084;2.962;2023-08-08T00:58:13;98030.00;;;11.93;54.61
50518;BME280;37075;44.084;2.962;2023-08-08T01:00:58;98034.09;;;11.87;54.45
50518;BME280;37075;44.084;2.962;2023-08-08T01:03:45;98028.03;;;11.81;54.94
50518;BME280;37075;44.084;2.962;2023-08-08T01:06:31;98019.22;;;11.76;54.81
50518;BME280;37075;44.084;2.962;2023-08-08T01:09:21;98026.78;;;11.70;54.74
50518;BME280;37075;44.084;2.962;2023-08-08T01:12:12;98025.06;;;11.65;54.98
50518;BME280;37075;44.084;2.962;2023-08-08T01:14:58;98025.59;;;11.59;55.79
50518;BME280;37075;44.084;2.962;2023-08-08T01:17:45;98030.47;;;11.53;56.14
50518;BME280;37075;44.084;2.962;2023-08-08T01:20:31;98023.28;;;11.49;56.31
50518;BME280;37075;44.084;2.962;2023-08-08T01:23:19;98026.97;;;11.44;55.95
50518;BME280;37075;44.084;2.962;2023-08-08T01:26:07;98021.69;;;11.39;56.57
50518;BME280;37075;44.084;2.962;2023-08-08T01:28:52;98029.75;;;11.35;56.19
50518;BME280;37075;44.084;2.962;2023-08-08T01:31:38;98028.03;;;11.31;57.03
50518;BME280;37075;44.084;2.962;2023-08-08T01:34:24;98023.56;;;11.26;56.54
50518;BME280;37075;44.084;2.962;2023-08-08T01:37:11;98027.28;;;11.22;56.16
50518;BME280;37075;44.084;2.962;2023-08-08T01:40:17;98032.13;;;11.16;56.61
50518;BME280;37075;44.084;2.962;2023-08-08T01:43:06;98031.97;;;11.12;56.80
50518;BME280;37075;44.084;2.962;2023-08-08T01:45:52;98035.22;;;11.06;56.57
50518;BME280;37075;44.084;2.962;2023-08-08T01:48:39;98034.28;;;11.02;56.74
50518;BME280;37075;44.084;2.962;2023-08-08T01:51:25;98038.81;;;10.98;56.63
50518;BME280;37075;44.084;2.962;2023-08-08T01:54:12;98042.53;;;10.93;57.03
50518;BME280;37075;44.084;2.962;2023-08-08T01:56:58;98034.50;;;10.88;57.07
50518;BME280;37075;44.084;2.962;2023-08-08T01:59:46;98035.81;;;10.82;56.97
50518;BME280;37075;44.084;2.962;2023-08-08T02:02:32;98035.66;;;10.78;57.49
50518;BME280;37075;44.084;2.962;2023-08-08T02:05:19;98039.38;;;10.74;57.32
50518;BME280;37075;44.084;2.962;2023-08-08T02:08:05;98037.63;;;10.69;57.36
50518;BME280;37075;44.084;2.962;2023-08-08T02:10:53;98032.81;;;10.66;57.07
50518;BME280;37075;44.084;2.962;2023-08-08T02:13:39;98039.72;;;10.64;57.62
50518;BME280;37075;44.084;2.962;2023-08-08T02:16:26;98036.03;;;10.60;57.41
50518;BME280;37075;44.084;2.962;2023-08-08T02:19:12;98043.28;;;10.56;57.85
50518;BME280;37075;44.084;2.962;2023-08-08T02:21:59;98045.38;;;10.50;57.66
50518;BME280;37075;44.084;2.962;2023-08-08T02:24:45;98044.44;;;10.46;58.38
50518;BME280;37075;44.084;2.962;2023-08-08T02:27:30;98038.84;;;10.42;57.66
50518;BME280;37075;44.084;2.962;2023-08-08T02:30:16;98041.72;;;10.37;58.27
50518;BME280;37075;44.084;2.962;2023-08-08T02:33:04;98047.34;;;10.32;58.04
50518;BME280;37075;44.084;2.962;2023-08-08T02:35:49;98050.72;;;10.29;58.37
50518;BME280;37075;44.084;2.962;2023-08-08T02:38:35;98052.81;;;10.24;58.96
50518;BME280;37075;44.084;2.962;2023-08-08T02:41:21;98047.19;;;10.20;57.96
50518;BME280;37075;44.084;2.962;2023-08-08T02:44:08;98046.22;;;10.16;58.37
50518;BME280;37075;44.084;2.962;2023-08-08T02:46:53;98050.69;;;10.12;58.08
50518;BME280;37075;44.084;2.962;2023-08-08T02:49:41;98052.47;;;10.08;58.40
50518;BME280;37075;44.084;2.962;2023-08-08T02:52:27;98055.84;;;10.05;58.44
50518;BME280;37075;44.084;2.962;2023-08-08T02:55:13;98046.72;;;10.01;58.46
50518;BME280;37075;44.084;2.962;2023-08-08T02:58:00;98047.34;;;9.98;58.70
50518;BME280;37075;44.084;2.962;2023-08-08T03:00:46;98045.28;;;9.95;58.58
50518;BME280;37075;44.084;2.962;2023-08-08T03:03:34;98044.31;;;9.91;59.03
50518;BME280;37075;44.084;2.962;2023-08-08T03:06:22;98049.25;;;9.88;58.81
50518;BME280;37075;44.084;2.962;2023-08-08T03:09:10;98051.03;;;9.84;58.88
50518;BME280;37075;44.084;2.962;2023-08-08T03:11:57;98052.00;;;9.80;58.58
50518;BME280;37075;44.084;2.962;2023-08-08T03:14:42;98052.97;;;9.75;59.05
50518;BME280;37075;44.084;2.962;2023-08-08T03:17:28;98053.94;;;9.71;59.05
50518;BME280;37075;44.084;2.962;2023-08-08T03:20:33;98059.53;;;9.66;59.28
50518;BME280;37075;44.084;2.962;2023-08-08T03:23:21;98054.69;;;9.63;59.12
50518;BME280;37075;44.084;2.962;2023-08-08T03:26:09;98059.97;;;9.59;59.34
50518;BME280;37075;44.084;2.962;2023-08-08T03:28:55;98061.75;;;9.55;59.38
50518;BME280;37075;44.084;2.962;2023-08-08T03:31:48;98059.66;;;9.52;59.43
50518;BME280;37075;44.084;2.962;2023-08-08T03:34:35;98064.63;;;9.50;59.51
50518;BME280;37075;44.084;2.962;2023-08-08T03:37:23;98053.56;;;9.46;59.52
50518;BME280;37075;44.084;2.962;2023-08-08T03:40:10;98063.19;;;9.44;59.48
50518;BME280;37075;44.084;2.962;2023-08-08T03:42:58;98057.09;;;9.38;60.27
50518;BME280;37075;44.084;2.962;2023-08-08T03:45:44;98057.69;;;9.35;59.65
50518;BME280;37075;44.084;2.962;2023-08-08T03:48:30;98063.78;;;9.32;60.00
50518;BME280;37075;44.084;2.962;2023-08-08T03:51:16;98057.84;;;9.30;60.09
50518;BME280;37075;44.084;2.962;2023-08-08T03:54:02;98059.28;;;9.27;59.85
50518;BME280;37075;44.084;2.962;2023-08-08T03:56:50;98058.81;;;9.25;60.89
50518;BME280;37075;44.084;2.962;2023-08-08T03:59:38;98064.09;;;9.22;60.83
50518;BME280;37075;44.084;2.962;2023-08-08T04:02:24;98062.81;;;9.19;61.32
50518;BME280;37075;44.084;2.962;2023-08-08T04:05:10;98066.16;;;9.16;60.36
50518;BME280;37075;44.084;2.962;2023-08-08T04:07:56;98070.31;;;9.14;60.39
50518;BME280;37075;44.084;2.962;2023-08-08T04:10:42;98070.44;;;9.09;60.84
50518;BME280;37075;44.084;2.962;2023-08-08T04:13:30;98068.03;;;9.07;60.56
50518;BME280;37075;44.084;2.962;2023-08-08T04:16:16;98071.38;;;9.04;60.73
50518;BME280;37075;44.084;2.962;2023-08-08T04:19:01;98073.63;;;9.02;60.73
50518;BME280;37075;44.084;2.962;2023-08-08T04:21:47;98073.13;;;9.00;60.61
50518;BME280;37075;44.084;2.962;2023-08-08T04:24:33;98082.72;;;8.98;61.36
50518;BME280;37075;44.084;2.962;2023-08-08T04:27:38;98084.97;;;8.95;61.38
50518;BME280;37075;44.084;2.962;2023-08-08T04:30:25;98091.19;;;8.96;61.64
50518;BME280;37075;44.084;2.962;2023-08-08T04:33:11;98086.38;;;8.93;62.36
50518;BME280;37075;44.084;2.962;2023-08-08T04:35:57;98084.47;;;8.93;61.60
50518;BME280;37075;44.084;2.962;2023-08-08T04:38:43;98083.66;;;8.93;61.71
50518;BME280;37075;44.084;2.962;2023-08-08T04:41:29;98087.81;;;8.90;61.39
50518;BME280;37075;44.084;2.962;2023-08-08T04:44:14;98082.69;;;8.89;61.28
50518;BME280;37075;44.084;2.962;2023-08-08T04:47:02;98085.72;;;8.87;61.45
50518;BME280;37075;44.084;2.962;2023-08-08T04:49:48;98084.44;;;8.85;62.15
50518;BME280;37075;44.084;2.962;2023-08-08T04:52:34;98078.16;;;8.84;61.65
50518;BME280;37075;44.084;2.962;2023-08-08T04:55:19;98074.16;;;8.82;61.93
50518;BME280;37075;44.084;2.962;2023-08-08T04:58:06;98075.28;;;8.81;62.85
50518;BME280;37075;44.084;2.962;2023-08-08T05:00:51;98081.03;;;8.79;62.62
50518;BME280;37075;44.084;2.962;2023-08-08T05:03:40;98072.06;;;8.79;63.70
50518;BME280;37075;44.084;2.962;2023-08-08T05:06:26;98076.22;;;8.76;62.94
50518;BME280;37075;44.084;2.962;2023-08-08T05:09:12;98078.63;;;8.78;63.06
50518;BME280;37075;44.084;2.962;2023-08-08T05:11:58;98074.00;;;8.78;62.60
50518;BME280;37075;44.084;2.962;2023-08-08T05:14:44;98077.50;;;8.79;63.62
50518;BME280;37075;44.084;2.962;2023-08-08T05:17:29;98067.75;;;8.78;65.02
50518;BME280;37075;44.084;2.962;2023-08-08T05:20:17;98075.59;;;8.79;63.27
50518;BME280;37075;44.084;2.962;2023-08-08T05:23:03;98085.03;;;8.82;63.20
50518;BME280;37075;44.084;2.962;2023-08-08T05:25:48;98079.81;;;8.85;63.14
50518;BME280;37075;44.084;2.962;2023-08-08T05:28:34;98086.53;;;8.88;63.71
50518;BME280;37075;44.084;2.962;2023-08-08T05:31:20;98075.03;;;8.91;63.61
50518;BME280;37075;44.084;2.962;2023-08-08T05:34:06;98083.66;;;8.93;63.55
50518;BME280;37075;44.084;2.962;2023-08-08T05:36:53;98082.72;;;8.98;63.67
50518;BME280;37075;44.084;2.962;2023-08-08T05:39:58;98077.44;;;9.01;63.81
50518;BME280;37075;44.084;2.962;2023-08-08T05:42:43;98076.03;;;9.04;64.79
50518;BME280;37075;44.084;2.962;2023-08-08T05:45:29;98071.88;;;9.06;64.95
50518;BME280;37075;44.084;2.962;2023-08-08T05:48:16;98077.19;;;9.11;64.20
50518;BME280;37075;44.084;2.962;2023-08-08T05:51:02;98067.28;;;9.15;65.23
50518;BME280;37075;44.084;2.962;2023-08-08T05:53:50;98075.28;;;9.20;64.37
50518;BME280;37075;44.084;2.962;2023-08-08T05:56:36;98070.19;;;9.27;64.71
50518;BME280;37075;44.084;2.962;2023-08-08T05:59:23;98065.88;;;9.35;65.73
50518;BME280;37075;44.084;2.962;2023-08-08T06:02:09;98074.72;;;9.41;66.93
50518;BME280;37075;44.084;2.962;2023-08-08T06:04:54;98074.06;;;9.44;69.39
50518;BME280;37075;44.084;2.962;2023-08-08T06:07:40;98086.09;;;9.51;68.94
50518;BME280;37075;44.084;2.962;2023-08-08T06:10:27;98082.25;;;9.61;66.95
50518;BME280;37075;44.084;2.962;2023-08-08T06:13:13;98085.00;;;9.70;66.73
50518;BME280;37075;44.084;2.962;2023-08-08T06:15:59;98087.72;;;9.78;66.61
50518;BME280;37075;44.084;2.962;2023-08-08T06:18:48;98084.69;;;9.88;66.36
50518;BME280;37075;44.084;2.962;2023-08-08T06:21:33;98078.47;;;9.97;67.11
50518;BME280;37075;44.084;2.962;2023-08-08T06:24:19;98086.63;;;10.05;68.31
50518;BME280;37075;44.084;2.962;2023-08-08T06:27:06;98078.94;;;10.16;69.37
50518;BME280;37075;44.084;2.962;2023-08-08T06:29:52;98071.56;;;10.25;70.06
50518;BME280;37075;44.084;2.962;2023-08-08T06:32:38;98066.25;;;10.37;67.89
50518;BME280;37075;44.084;2.962;2023-08-08T06:35:24;98067.53;;;10.48;68.77
50518;BME280;37075;44.084;2.962;2023-08-08T06:38:10;98074.22;;;10.60;67.91
50518;BME280;37075;44.084;2.962;2023-08-08T06:41:14;98078.09;;;10.67;70.74
50518;BME280;37075;44.084;2.962;2023-08-08T06:44:01;98083.66;;;10.79;69.13
50518;BME280;37075;44.084;2.962;2023-08-08T06:46:47;98089.53;;;10.90;68.41
50518;BME280;37075;44.084;2.962;2023-08-08T06:49:33;98091.94;;;11.00;67.58
50518;BME280;37075;44.084;2.962;2023-08-08T06:52:38;98083.84;;;11.12;66.64
50518;BME280;37075;44.084;2.962;2023-08-08T06:55:24;98071.78;;;11.22;66.37
50518;BME280;37075;44.084;2.962;2023-08-08T06:58:10;98077.19;;;11.31;66.41
50518;BME280;37075;44.084;2.962;2023-08-08T07:00:58;98089.31;;;11.42;66.18
50518;BME280;37075;44.084;2.962;2023-08-08T07:03:44;98086.22;;;11.52;65.47
50518;BME280;37075;44.084;2.962;2023-08-08T07:06:31;98085.03;;;11.62;64.86
50518;BME280;37075;44.084;2.962;2023-08-08T07:09:36;98084.66;;;11.72;65.33
50518;BME280;37075;44.084;2.962;2023-08-08T07:12:22;98073.81;;;11.84;64.63
50518;BME280;37075;44.084;2.962;2023-08-08T07:15:09;98069.88;;;11.94;64.57
50518;BME280;37075;44.084;2.962;2023-08-08T07:17:57;98061.28;;;12.04;64.37
50518;BME280;37075;44.084;2.962;2023-08-08T07:20:43;98072.28;;;12.16;64.20
50518;BME280;37075;44.084;2.962;2023-08-08T07:23:28;98078.94;;;12.27;63.60
50518;BME280;37075;44.084;2.962;2023-08-08T07:26:14;98082.53;;;12.40;63.39
50518;BME280;37075;44.084;2.962;2023-08-08T07:29:00;98081.78;;;12.52;63.15
50518;BME280;37075;44.084;2.962;2023-08-08T07:31:46;98086.47;;;12.63;63.04
50518;BME280;37075;44.084;2.962;2023-08-08T07:34:33;98084.59;;;12.76;62.81
50518;BME280;37075;44.084;2.962;2023-08-08T07:37:19;98080.25;;;12.87;63.52
50518;BME280;37075;44.084;2.962;2023-08-08T07:40:13;98075.28;;;13.02;62.45
50518;BME280;37075;44.084;2.962;2023-08-08T07:42:59;98071.41;;;13.15;62.16
50518;BME280;37075;44.084;2.962;2023-08-08T07:45:45;98069.81;;;13.26;61.59
50518;BME280;37075;44.084;2.962;2023-08-08T07:48:31;98053.75;;;13.37;60.52
50518;BME280;37075;44.084;2.962;2023-08-08T07:51:18;98056.91;;;13.51;60.10
50518;BME280;37075;44.084;2.962;2023-08-08T07:54:04;98049.94;;;13.66;60.30
50518;BME280;37075;44.084;2.962;2023-08-08T07:56:52;98049.22;;;13.81;59.59
50518;BME280;37075;44.084;2.962;2023-08-08T07:59:38;98057.50;;;13.97;59.72
50518;BME280;37075;44.084;2.962;2023-08-08T08:02:24;98048.56;;;14.12;59.40
50518;BME280;37075;44.084;2.962;2023-08-08T08:05:11;98040.28;;;14.24;59.40
50518;BME280;37075;44.084;2.962;2023-08-08T08:08:00;98034.38;;;14.38;59.17
50518;BME280;37075;44.084;2.962;2023-08-08T08:10:47;98033.19;;;14.51;58.78
50518;BME280;37075;44.084;2.962;2023-08-08T08:13:33;98030.84;;;14.65;58.37
50518;BME280;37075;44.084;2.962;2023-08-08T08:16:19;98026.50;;;14.80;58.31
50518;BME280;37075;44.084;2.962;2023-08-08T08:19:05;98032.34;;;14.94;57.70
50518;BME280;37075;44.084;2.962;2023-08-08T08:21:51;98032.69;;;15.08;55.94
50518;BME280;37075;44.084;2.962;2023-08-08T08:24:38;98022.50;;;15.25;57.20
50518;BME280;37075;44.084;2.962;2023-08-08T08:27:24;98004.13;;;15.45;57.29
50518;BME280;37075;44.084;2.962;2023-08-08T08:30:11;98011.91;;;15.58;56.49
50518;BME280;37075;44.084;2.962;2023-08-08T08:32:57;98021.28;;;15.73;56.29
50518;BME280;37075;44.084;2.962;2023-08-08T08:35:43;98019.63;;;15.88;54.92
50518;BME280;37075;44.084;2.962;2023-08-08T08:38:30;98031.50;;;16.11;52.30
50518;BME280;37075;44.084;2.962;2023-08-08T08:41:18;98019.19;;;16.24;54.14
50518;BME280;37075;44.084;2.962;2023-08-08T08:44:23;98023.00;;;16.39;54.16
50518;BME280;37075;44.084;2.962;2023-08-08T08:47:10;98019.38;;;16.54;53.80
50518;BME280;37075;44.084;2.962;2023-08-08T08:49:57;98020.47;;;16.69;53.58
50518;BME280;37075;44.084;2.962;2023-08-08T08:52:45;98030.13;;;16.82;51.57
50518;BME280;37075;44.084;2.962;2023-08-08T08:55:31;98016.97;;;16.95;52.30
50518;BME280;37075;44.084;2.962;2023-08-08T08:58:19;98019.66;;;17.14;52.12
50518;BME280;37075;44.084;2.962;2023-08-08T09:01:05;98024.22;;;17.30;51.93
50518;BME280;37075;44.084;2.962;2023-08-08T09:03:51;98018.13;;;17.43;51.82
50518;BME280;37075;44.084;2.962;2023-08-08T09:06:56;98009.69;;;17.59;52.05
50518;BME280;37075;44.084;2.962;2023-08-08T09:09:42;98004.84;;;17.75;51.44
50518;BME280;37075;44.084;2.962;2023-08-08T09:12:47;98007.94;;;18.00;50.00
50518;BME280;37075;44.084;2.962;2023-08-08T09:15:34;98011.28;;;18.20;49.96
50518;BME280;37075;44.084;2.962;2023-08-08T09:18:22;98011.09;;;18.36;50.15
50518;BME280;37075;44.084;2.962;2023-08-08T09:21:08;98013.69;;;18.55;50.41
50518;BME280;37075;44.084;2.962;2023-08-08T09:24:13;98004.47;;;18.77;49.24
50518;BME280;37075;44.084;2.962;2023-08-08T09:26:59;98001.44;;;18.97;49.42
50518;BME280;37075;44.084;2.962;2023-08-08T09:29:45;97998.47;;;19.16;49.58
50518;BME280;37075;44.084;2.962;2023-08-08T09:32:32;98000.19;;;19.35;48.79
50518;BME280;37075;44.084;2.962;2023-08-08T09:35:18;97988.41;;;19.49;48.65
50518;BME280;37075;44.084;2.962;2023-08-08T09:38:04;97987.34;;;19.64;45.71
50518;BME280;37075;44.084;2.962;2023-08-08T09:40:50;97983.09;;;19.81;46.12
50518;BME280;37075;44.084;2.962;2023-08-08T09:43:36;97984.34;;;19.97;45.66
50518;BME280;37075;44.084;2.962;2023-08-08T09:46:23;97989.56;;;20.13;45.30
50518;BME280;37075;44.084;2.962;2023-08-08T09:49:10;97985.69;;;20.32;44.80
50518;BME280;37075;44.084;2.962;2023-08-08T09:51:57;97979.41;;;20.46;44.76
50518;BME280;37075;44.084;2.962;2023-08-08T09:54:43;97982.59;;;20.58;43.94
50518;BME280;37075;44.084;2.962;2023-08-08T09:57:29;97984.59;;;20.72;44.50
50518;BME280;37075;44.084;2.962;2023-08-08T10:00:16;97980.66;;;20.84;41.71
50518;BME280;37075;44.084;2.962;2023-08-08T10:03:02;97982.63;;;20.98;43.04
50518;BME280;37075;44.084;2.962;2023-08-08T10:05:49;97989.78;;;21.09;42.79
50518;BME280;37075;44.084;2.962;2023-08-08T10:08:35;97979.50;;;21.24;42.11
50518;BME280;37075;44.084;2.962;2023-08-08T10:11:20;97976.31;;;21.36;42.58
50518;BME280;37075;44.084;2.962;2023-08-08T10:14:08;97965.19;;;21.50;42.27
50518;BME280;37075;44.084;2.962;2023-08-08T10:16:55;97953.25;;;21.64;39.80
50518;BME280;37075;44.084;2.962;2023-08-08T10:19:49;97950.41;;;21.82;40.62
50518;BME280;37075;44.084;2.962;2023-08-08T10:22:37;97952.34;;;21.96;40.91
50518;BME280;37075;44.084;2.962;2023-08-08T10:25:24;97957.06;;;22.09;39.67
50518;BME280;37075;44.084;2.962;2023-08-08T10:28:12;97956.22;;;22.23;39.86
50518;BME280;37075;44.084;2.962;2023-08-08T10:30:59;97947.81;;;22.34;39.44
50518;BME280;37075;44.084;2.962;2023-08-08T10:33:46;97958.47;;;22.46;35.90
50518;BME280;37075;44.084;2.962;2023-08-08T10:39:52;97953.50;;;22.75;37.04
50518;BME280;37075;44.084;2.962;2023-08-08T10:42:42;97939.91;;;22.91;36.51
50518;BME280;37075;44.084;2.962;2023-08-08T10:45:29;97943.31;;;23.10;33.96
50518;BME280;37075;44.084;2.962;2023-08-08T10:48:15;97929.28;;;23.24;34.54
50518;BME280;37075;44.084;2.962;2023-08-08T10:51:02;97935.47;;;23.38;35.05
50518;BME280;37075;44.084;2.962;2023-08-08T10:53:51;97921.00;;;23.54;35.17
50518;BME280;37075;44.084;2.962;2023-08-08T10:56:39;97917.69;;;23.70;34.99
50518;BME280;37075;44.084;2.962;2023-08-08T10:59:26;97911.13;;;23.84;34.01
50518;BME280;37075;44.084;2.962;2023-08-08T11:02:12;97915.28;;;24.03;34.00
50518;BME280;37075;44.084;2.962;2023-08-08T11:04:58;97913.44;;;24.19;34.07
50518;BME280;37075;44.084;2.962;2023-08-08T11:07:45;97915.28;;;24.33;32.62
50518;BME280;37075;44.084;2.962;2023-08-08T11:10:34;97916.75;;;24.41;29.96
50518;BME280;37075;44.084;2.962;2023-08-08T11:13:22;97913.41;;;24.53;29.92
50518;BME280;37075;44.084;2.962;2023-08-08T11:16:07;97903.66;;;24.65;29.04
50518;BME280;37075;44.084;2.962;2023-08-08T11:18:55;97889.19;;;24.74;30.77
50518;BME280;37075;44.084;2.962;2023-08-08T11:21:41;97889.78;;;24.85;26.95
50518;BME280;37075;44.084;2.962;2023-08-08T11:24:34;97884.00;;;24.96;28.26
50518;BME280;37075;44.084;2.962;2023-08-08T11:27:20;97884.59;;;25.10;26.64
50518;BME280;37075;44.084;2.962;2023-08-08T11:30:08;97875.28;;;25.17;26.75
50518;BME280;37075;44.084;2.962;2023-08-08T11:32:54;97872.31;;;25.28;26.32
50518;BME280;37075;44.084;2.962;2023-08-08T11:35:43;97862.44;;;25.43;27.70
50518;BME280;37075;44.084;2.962;2023-08-08T11:38:30;97863.38;;;25.56;26.89
50518;BME280;37075;44.084;2.962;2023-08-08T11:41:17;97863.53;;;25.69;25.59
50518;BME280;37075;44.084;2.962;2023-08-08T11:44:05;97866.56;;;25.78;25.81
50518;BME280;37075;44.084;2.962;2023-08-08T11:46:54;97859.59;;;25.86;26.09
50518;BME280;37075;44.084;2.962;2023-08-08T11:49:40;97870.00;;;26.02;25.79
50518;BME280;37075;44.084;2.962;2023-08-08T11:52:27;97873.47;;;26.09;24.19
50518;BME280;37075;44.084;2.962;2023-08-08T11:55:13;97858.78;;;26.05;23.58
50518;BME280;37075;44.084;2.962;2023-08-08T11:58:00;97863.41;;;26.12;24.17
50518;BME280;37075;44.084;2.962;2023-08-08T12:00:45;97855.72;;;26.16;23.72
50518;BME280;37075;44.084;2.962;2023-08-08T12:03:32;97857.47;;;26.26;23.12
50518;BME280;37075;44.084;2.962;2023-08-08T12:06:22;97859.34;;;26.33;22.66
50518;BME280;37075;44.084;2.962;2023-08-08T12:09:13;97855.22;;;26.21;21.96
50518;BME280;37075;44.084;2.962;2023-08-08T12:12:00;97858.06;;;26.37;22.09
50518;BME280;37075;44.084;2.962;2023-08-08T12:14:46;97847.50;;;26.45;22.29
50518;BME280;37075;44.084;2.962;2023-08-08T12:17:32;97845.69;;;26.55;21.94
50518;BME280;37075;44.084;2.962;2023-08-08T12:20:19;97850.22;;;26.65;21.13
50518;BME280;37075;44.084;2.962;2023-08-08T12:23:06;97845.56;;;26.74;21.64
50518;BME280;37075;44.084;2.962;2023-08-08T12:25:51;97846.53;;;26.68;21.26
50518;BME280;37075;44.084;2.962;2023-08-08T12:28:37;97835.78;;;26.83;21.70
50518;BME280;37075;44.084;2.962;2023-08-08T12:31:23;97841.97;;;26.90;21.03
50518;BME280;37075;44.084;2.962;2023-08-08T12:34:09;97841.78;;;27.14;21.80
50518;BME280;37075;44.084;2.962;2023-08-08T12:36:56;97848.44;;;27.03;21.58
50518;BME280;37075;44.084;2.962;2023-08-08T12:40:01;97837.75;;;26.98;21.18
50518;BME280;37075;44.084;2.962;2023-08-08T12:42:50;97840.31;;;27.09;21.27
50518;BME280;37075;44.084;2.962;2023-08-08T12:45:36;97843.59;;;27.20;22.32
50518;BME280;37075;44.084;2.962;2023-08-08T12:48:23;97842.13;;;27.16;21.69
50518;BME280;37075;44.084;2.962;2023-08-08T12:51:27;97839.22;;;27.19;21.57
50518;BME280;37075;44.084;2.962;2023-08-08T12:54:14;97848.41;;;27.20;20.82
50518;BME280;37075;44.084;2.962;2023-08-08T12:57:00;97832.19;;;27.27;21.40
50518;BME280;37075;44.084;2.962;2023-08-08T12:59:46;97837.16;;;27.36;21.19
50518;BME280;37075;44.084;2.962;2023-08-08T13:02:32;97839.22;;;27.48;19.57
50518;BME280;37075;44.084;2.962;2023-08-08T13:05:18;97838.13;;;27.58;18.81
50518;BME280;37075;44.084;2.962;2023-08-08T13:08:22;97828.38;;;27.92;20.60
50518;BME280;37075;44.084;2.962;2023-08-08T13:11:09;97826.16;;;28.50;21.32
50518;BME280;37075;44.084;2.962;2023-08-08T13:13:55;97826.44;;;28.91;19.21
50518;BME280;37075;44.084;2.962;2023-08-08T13:16:41;97830.25;;;29.53;18.51
50518;BME280;37075;44.084;2.962;2023-08-08T13:19:27;97822.19;;;30.17;18.53
50518;BME280;37075;44.084;2.962;2023-08-08T13:22:13;97822.09;;;30.79;17.23
50518;BME280;37075;44.084;2.962;2023-08-08T13:24:59;97819.66;;;31.54;15.96
50518;BME280;37075;44.084;2.962;2023-08-08T13:27:46;97805.78;;;32.02;16.12
50518;BME280;37075;44.084;2.962;2023-08-08T13:30:32;97803.97;;;32.56;15.55
50518;BME280;37075;44.084;2.962;2023-08-08T13:33:20;97797.09;;;33.44;15.14
50518;BME280;37075;44.084;2.962;2023-08-08T13:36:06;97798.47;;;34.07;14.56
50518;BME280;37075;44.084;2.962;2023-08-08T13:38:52;97800.31;;;34.60;14.15
50518;BME280;37075;44.084;2.962;2023-08-08T13:41:37;97794.56;;;34.54;13.81
50518;BME280;37075;44.084;2.962;2023-08-08T13:44:24;97806.69;;;34.55;13.88
50518;BME280;37075;44.084;2.962;2023-08-08T13:47:11;97797.84;;;35.49;14.35
50518;BME280;37075;44.084;2.962;2023-08-08T13:49:57;97800.00;;;36.11;13.94
50518;BME280;37075;44.084;2.962;2023-08-08T13:52:42;97794.66;;;36.99;13.78
50518;BME280;37075;44.084;2.962;2023-08-08T13:55:28;97796.84;;;37.38;11.79
50518;BME280;37075;44.084;2.962;2023-08-08T13:58:14;97794.16;;;37.12;11.26
50518;BME280;37075;44.084;2.962;2023-08-08T14:01:01;97797.16;;;37.56;11.71
50518;BME280;37075;44.084;2.962;2023-08-08T14:03:47;97787.13;;;37.89;11.41
50518;BME280;37075;44.084;2.962;2023-08-08T14:06:33;97782.47;;;38.36;10.70
50518;BME280;37075;44.084;2.962;2023-08-08T14:09:19;97796.41;;;38.51;10.31
50518;BME280;37075;44.084;2.962;2023-08-08T14:12:05;97780.34;;;38.48;10.05
50518;BME280;37075;44.084;2.962;2023-08-08T14:15:10;97785.38;;;39.16;10.67
50518;BME280;37075;44.084;2.962;2023-08-08T14:17:57;97780.63;;;39.71;10.13
50518;BME280;37075;44.084;2.962;2023-08-08T14:20:43;97778.44;;;39.06;9.57
50518;BME280;37075;44.084;2.962;2023-08-08T14:23:29;97774.19;;;38.27;10.12
50518;BME280;37075;44.084;2.962;2023-08-08T14:26:15;97769.00;;;37.97;10.22
50518;BME280;37075;44.084;2.962;2023-08-08T14:29:01;97773.34;;;37.71;9.01
50518;BME280;37075;44.084;2.962;2023-08-08T14:31:47;97779.88;;;37.88;9.40
50518;BME280;37075;44.084;2.962;2023-08-08T14:34:34;97778.31;;;38.37;9.74
50518;BME280;37075;44.084;2.962;2023-08-08T14:37:40;97777.00;;;38.55;9.31
50518;BME280;37075;44.084;2.962;2023-08-08T14:40:26;97785.91;;;39.15;8.47
50518;BME280;37075;44.084;2.962;2023-08-08T14:43:12;97780.00;;;39.48;7.71
50518;BME280;37075;44.084;2.962;2023-08-08T14:45:58;97775.72;;;39.72;7.98
50518;BME280;37075;44.084;2.962;2023-08-08T14:48:44;97773.13;;;39.68;8.29
50518;BME280;37075;44.084;2.962;2023-08-08T14:51:31;97776.69;;;38.81;8.66
50518;BME280;37075;44.084;2.962;2023-08-08T14:54:17;97766.84;;;38.71;8.30